Time;durP1;ratioP1;P1;durP2;ratioP2;P2;SDS_P1;SDS_P2;PMS_P1;PMS_P2;Temp;Humidity;BMP_temperature;BMP_pressure;BME280_temperature;BME280_humidity;BME280_pressure;Samples;Min_cycle;Max_cycle;Signal;HPM_P1;HPM_P2
2023/03/31 00:02:12;;;;;;;6.20;2.87;;;;;;;8.46;100.00;99714.63;4941172;28;20031;-79
2023/03/31 00:04:44;;;;;;;6.17;2.97;;;;;;;8.49;100.00;99718.94;4924695;28;20058;-79
2023/03/31 00:07:15;;;;;;;5.27;2.80;;;;;;;8.51;100.00;99711.03;4952951;28;20043;-81
2023/03/31 00:09:44;;;;;;;5.20;3.17;;;;;;;8.49;100.00;99711.06;4951358;28;20471;-80
2023/03/31 00:12:12;;;;;;;3.90;2.87;;;;;;;8.45;100.00;99709.41;4956906;28;20042;-80
2023/03/31 00:14:41;;;;;;;6.63;3.70;;;;;;;8.51;100.00;99705.78;4983098;28;20034;-81
2023/03/31 00:17:08;;;;;;;6.87;3.30;;;;;;;8.58;100.00;99705.56;4979567;23;20109;-78
2023/03/31 00:19:35;;;;;;;7.05;2.75;;;;;;;8.60;100.00;99705.50;4976331;28;20034;-79
2023/03/31 00:22:04;;;;;;;5.50;3.40;;;;;;;8.58;100.00;99700.28;4956380;28;20030;-78
2023/03/31 00:24:31;;;;;;;7.00;3.50;;;;;;;8.67;100.00;99696.53;4956835;28;20474;-79
2023/03/31 00:27:03;;;;;;;6.17;3.00;;;;;;;8.59;100.00;99704.66;4967750;28;20050;-79
2023/03/31 00:29:30;;;;;;;5.87;3.00;;;;;;;8.67;100.00;99707.06;4955076;28;20047;-79
2023/03/31 00:31:58;;;;;;;4.43;2.92;;;;;;;8.72;100.00;99692.84;4941046;28;20110;-79
2023/03/31 00:34:25;;;;;;;6.47;3.50;;;;;;;8.83;100.00;99689.03;4981078;28;21007;-78
2023/03/31 00:36:55;;;;;;;12.38;5.43;;;;;;;8.86;100.00;99686.34;4944165;28;20042;-79
2023/03/31 00:39:23;;;;;;;8.55;4.22;;;;;;;8.74;100.00;99693.69;4969055;28;20046;-78
2023/03/31 00:41:50;;;;;;;10.45;4.25;;;;;;;8.83;100.00;99687.31;4964854;28;20059;-79
2023/03/31 00:44:23;;;;;;;8.07;3.63;;;;;;;8.86;100.00;99691.59;4956548;28;20043;-78
2023/03/31 00:46:53;;;;;;;7.88;3.50;;;;;;;8.83;100.00;99687.31;4915141;29;20067;-79
2023/03/31 00:49:26;;;;;;;8.82;3.72;;;;;;;8.90;100.00;99680.06;4954718;28;20224;-79
2023/03/31 00:51:54;;;;;;;7.60;3.53;;;;;;;8.82;100.00;99675.00;4956202;28;20555;-79
2023/03/31 00:54:22;;;;;;;7.53;3.22;;;;;;;8.77;100.00;99676.94;4957128;28;20042;-79
2023/03/31 00:56:51;;;;;;;6.80;3.30;;;;;;;8.85;100.00;99666.19;4930548;28;20093;-79
2023/03/31 00:59:19;;;;;;;8.87;3.60;;;;;;;8.76;100.00;99669.09;4949538;28;20524;-79
2023/03/31 01:01:47;;;;;;;6.77;3.50;;;;;;;8.85;100.00;99666.19;4947969;28;20046;-79
2023/03/31 01:04:15;;;;;;;5.97;3.80;;;;;;;8.81;100.00;99664.53;4965758;28;20101;-79
2023/03/31 01:06:50;;;;;;;7.75;3.47;;;;;;;8.87;100.00;99659.94;4963537;28;20054;-79
2023/03/31 01:09:19;;;;;;;5.40;3.70;;;;;;;8.87;100.00;99653.81;4924519;29;20051;-79
2023/03/31 01:11:46;;;;;;;9.68;3.88;;;;;;;9.00;100.00;99660.47;4954233;28;20054;-79
2023/03/31 01:14:13;;;;;;;7.00;3.75;;;;;;;8.94;100.00;99644.84;4950539;28;20089;-78
2023/03/31 01:16:40;;;;;;;6.93;3.43;;;;;;;8.90;100.00;99640.56;4962243;28;20049;-79
2023/03/31 01:19:16;;;;;;;10.30;3.65;;;;;;;8.91;100.00;99644.91;4943363;28;20050;-79
2023/03/31 01:22:15;;;;;;;10.30;4.83;;;;;;;9.00;100.00;99642.03;4930197;28;20050;-78
2023/03/31 01:25:06;;;;;;;7.97;4.20;;;;;;;8.88;100.00;99634.47;4954901;28;20485;-79
2023/03/31 01:27:57;;;;;;;7.30;3.58;;;;;;;8.73;100.00;99638.41;4956886;28;20041;-78
2023/03/31 01:30:28;;;;;;;6.72;3.55;;;;;;;8.74;100.00;99634.88;4943586;28;20043;-80
2023/03/31 01:33:14;;;;;;;9.45;4.10;;;;;;;8.69;100.00;99629.75;4940180;28;20053;-80
2023/03/31 01:35:59;;;;;;;5.47;3.70;;;;;;;8.71;100.00;99633.19;4940921;28;20039;-79
2023/03/31 01:39:00;;;;;;;7.40;3.57;;;;;;;8.69;100.00;99626.25;4948629;28;20058;-79
2023/03/31 01:41:44;;;;;;;6.13;3.87;;;;;;;8.65;100.00;99620.19;4950561;28;20053;-79
2023/03/31 01:44:19;;;;;;;9.02;3.80;;;;;;;8.60;100.00;99618.63;4985258;28;20046;-79
2023/03/31 01:46:54;;;;;;;6.07;3.50;;;;;;;8.66;100.00;99618.44;4938245;29;20047;-79
2023/03/31 01:49:33;;;;;;;8.02;3.75;;;;;;;8.67;100.00;99618.41;4928761;29;20051;-79
2023/03/31 01:52:16;;;;;;;8.80;3.80;;;;;;;8.60;100.00;99616.00;4941119;28;20042;-79
2023/03/31 01:54:49;;;;;;;7.55;4.00;;;;;;;8.61;100.00;99607.19;4947150;29;20061;-78
2023/03/31 01:57:21;;;;;;;8.13;3.50;;;;;;;8.59;100.00;99612.50;4938103;28;20121;-79
2023/03/31 02:00:03;;;;;;;8.63;4.15;;;;;;;8.54;100.00;99617.03;4923431;29;20047;-79
2023/03/31 02:02:33;;;;;;;6.97;3.90;;;;;;;8.50;100.00;99614.53;4933530;28;20070;-79
2023/03/31 02:05:08;;;;;;;8.20;3.63;;;;;;;8.54;100.00;99609.13;4941931;28;20047;-79
2023/03/31 02:07:40;;;;;;;6.23;3.50;;;;;;;8.53;100.00;99609.19;4956827;28;20042;-78
2023/03/31 02:10:09;;;;;;;6.70;3.58;;;;;;;8.59;100.00;99604.59;4959895;28;20042;-79
2023/03/31 02:12:37;;;;;;;5.23;3.30;;;;;;;8.54;100.00;99605.63;4938637;28;20057;-79
2023/03/31 02:15:08;;;;;;;6.50;3.92;;;;;;;8.52;100.00;99602.19;4963292;28;20138;-79
2023/03/31 02:17:38;;;;;;;7.13;3.22;;;;;;;8.60;100.00;99601.06;4939566;29;20523;-78
2023/03/31 02:20:10;;;;;;;7.80;3.75;;;;;;;8.59;100.00;99609.88;4920572;29;20066;-78
2023/03/31 02:22:38;;;;;;;9.53;3.10;;;;;;;8.58;100.00;99597.63;4967170;28;20050;-79
2023/03/31 02:25:07;;;;;;;5.97;3.03;;;;;;;8.57;100.00;99601.13;4946543;28;20142;-78
2023/03/31 02:27:42;;;;;;;7.37;3.13;;;;;;;8.51;100.00;99592.56;4955129;28;20039;-79
2023/03/31 02:30:10;;;;;;;6.10;3.27;;;;;;;8.57;100.00;99589.75;4922817;28;20424;-79
2023/03/31 02:32:39;;;;;;;6.57;3.42;;;;;;;8.55;100.00;99586.31;4920490;29;20047;-79
2023/03/31 02:35:11;;;;;;;5.30;3.03;;;;;;;8.51;100.00;99590.81;4955940;28;20051;-78
2023/03/31 02:37:39;;;;;;;5.40;3.10;;;;;;;8.46;100.00;99585.66;4939320;29;20047;-78
2023/03/31 02:40:09;;;;;;;6.37;3.10;;;;;;;8.42;100.00;99581.41;4964857;28;20054;-79
2023/03/31 02:42:39;;;;;;;5.50;3.03;;;;;;;8.34;100.00;99582.50;4928869;29;20041;-78
2023/03/31 02:45:35;;;;;;;5.70;2.80;;;;;;;8.30;100.00;99581.72;4965481;28;20496;-78
2023/03/31 02:48:03;;;;;;;8.23;3.70;;;;;;;8.30;100.00;99575.59;4931716;28;20047;-79
2023/03/31 02:50:35;;;;;;;5.33;3.20;;;;;;;8.31;100.00;99572.03;4937252;28;20046;-79
2023/03/31 02:53:40;;;;;;;6.77;3.13;;;;;;;8.30;100.00;99562.44;4919650;29;20051;-78
2023/03/31 02:56:26;;;;;;;5.03;2.63;;;;;;;8.19;100.00;99568.00;4924557;28;20134;-78
2023/03/31 02:59:07;;;;;;;6.23;3.00;;;;;;;8.07;100.00;99565.69;4938442;28;20130;-78
2023/03/31 03:01:40;;;;;;;8.53;2.77;;;;;;;8.01;100.00;99552.75;4945557;28;20058;-78
2023/03/31 03:04:16;;;;;;;5.63;3.27;;;;;;;8.10;100.00;99558.59;4968326;28;20035;-78
2023/03/31 03:07:03;;;;;;;7.93;2.93;;;;;;;8.03;100.00;99562.31;4947596;28;20051;-79
2023/03/31 03:09:48;;;;;;;5.80;2.70;;;;;;;8.01;100.00;99564.13;4956863;28;20046;-78
2023/03/31 03:12:31;;;;;;;8.20;3.37;;;;;;;8.06;100.00;99562.22;4941962;28;20050;-79
2023/03/31 03:15:06;;;;;;;13.50;3.50;;;;;;;8.10;100.00;99561.22;4950070;28;20061;-79
2023/03/31 03:17:42;;;;;;;6.00;2.77;;;;;;;8.30;100.00;99565.06;4992901;28;20047;-78
2023/03/31 03:20:10;;;;;;;7.57;4.00;;;;;;;8.30;100.00;99567.69;4952130;28;20484;-78
2023/03/31 03:22:38;;;;;;;4.90;3.03;;;;;;;8.30;100.00;99560.66;4941394;28;20042;-79
2023/03/31 03:25:05;;;;;;;4.60;3.07;;;;;;;8.34;100.00;99559.69;4941948;28;20054;-78
2023/03/31 03:27:32;;;;;;;7.93;4.00;;;;;;;8.34;100.00;99551.78;4953396;28;20043;-78
2023/03/31 03:29:59;;;;;;;7.97;3.23;;;;;;;8.33;100.00;99557.09;4922319;29;20058;-78
2023/03/31 03:32:25;;;;;;;7.80;2.80;;;;;;;8.28;100.00;99553.72;4924799;28;20047;-79
2023/03/31 03:34:52;;;;;;;6.70;2.90;;;;;;;8.34;100.00;99551.78;4957329;28;20057;-79
2023/03/31 03:37:19;;;;;;;4.03;2.67;;;;;;;8.29;100.00;99545.78;4970616;28;20492;-78
2023/03/31 03:39:45;;;;;;;4.70;2.90;;;;;;;8.28;100.00;99544.06;4926874;28;20043;-79
2023/03/31 03:42:12;;;;;;;7.33;3.03;;;;;;;8.25;100.00;99536.25;4921660;29;20047;-78
2023/03/31 03:44:39;;;;;;;8.10;3.40;;;;;;;8.16;100.00;99542.66;4933586;28;20043;-79
2023/03/31 03:47:06;;;;;;;5.73;2.53;;;;;;;8.10;100.00;99531.44;4953722;28;20050;-79
2023/03/31 03:49:32;;;;;;;4.57;3.07;;;;;;;8.03;100.00;99535.13;4940810;28;20049;-78
2023/03/31 03:51:59;;;;;;;5.07;2.90;;;;;;;8.00;100.00;99537.88;4950193;28;20427;-78
2023/03/31 03:54:26;;;;;;;5.00;2.60;;;;;;;7.92;100.00;99530.19;4959783;28;20046;-78
2023/03/31 03:56:53;;;;;;;10.13;5.10;;;;;;;7.91;100.00;99525.84;4929257;28;20125;-78
2023/03/31 03:59:19;;;;;;;19.10;10.43;;;;;;;7.86;100.00;99517.19;4934604;28;20074;-78
2023/03/31 04:01:46;;;;;;;9.77;6.37;;;;;;;7.73;100.00;99521.91;4955601;28;20051;-78
2023/03/31 04:04:13;;;;;;;7.07;3.47;;;;;;;7.74;100.00;99520.19;4936788;28;20038;-79
2023/03/31 04:06:40;;;;;;;4.93;2.90;;;;;;;7.65;100.00;99513.41;4926265;28;20070;-79
2023/03/31 04:09:07;;;;;;;10.63;3.40;;;;;;;7.57;100.00;99510.13;4949242;28;20631;-78
2023/03/31 04:11:34;;;;;;;8.93;3.20;;;;;;;7.55;100.00;99515.38;4921169;29;20043;-79
2023/03/31 04:14:01;;;;;;;7.73;2.90;;;;;;;7.47;100.00;99509.47;4941303;29;20043;-78
2023/03/31 04:16:27;;;;;;;4.93;2.80;;;;;;;7.43;100.00;99506.97;4954613;28;20038;-79
2023/03/31 04:18:58;;;;;;;4.17;3.00;;;;;;;7.43;100.00;99507.84;4935997;28;20050;-79
2023/03/31 04:21:25;;;;;;;5.93;3.50;;;;;;;7.48;100.00;99507.69;4927091;29;20455;-78
2023/03/31 04:24:05;;;;;;;6.20;3.33;;;;;;;7.50;100.00;99503.28;4960618;28;20045;-79
2023/03/31 04:26:42;;;;;;;5.57;3.67;;;;;;;7.50;100.00;99493.66;4941933;28;20058;-79
2023/03/31 04:29:15;;;;;;;8.20;4.03;;;;;;;7.53;100.00;99495.31;4940992;28;20047;-79
2023/03/31 04:31:42;;;;;;;5.70;3.03;;;;;;;7.56;100.00;99493.44;4946669;28;20136;-79
2023/03/31 04:34:13;;;;;;;5.30;3.50;;;;;;;7.63;100.00;99488.91;4955441;28;20038;-78
2023/03/31 04:36:45;;;;;;;4.10;3.10;;;;;;;7.69;100.00;99483.47;4924742;28;20050;-78
2023/03/31 04:39:25;;;;;;;5.97;2.60;;;;;;;7.72;100.00;99486.03;4940462;28;20129;-78
2023/03/31 04:41:55;;;;;;;5.40;3.10;;;;;;;7.74;100.00;99481.59;4965161;28;20136;-80
2023/03/31 04:44:22;;;;;;;4.87;3.63;;;;;;;7.75;100.00;99478.06;4937587;29;20404;-79
2023/03/31 04:46:52;;;;;;;5.47;3.17;;;;;;;7.78;100.00;99470.09;4933493;28;20051;-79
2023/03/31 04:49:19;;;;;;;8.17;4.00;;;;;;;7.82;100.00;99461.22;4942798;28;20093;-78
2023/03/31 04:51:46;;;;;;;6.87;3.10;;;;;;;7.92;100.00;99458.31;4939967;28;20478;-79
2023/03/31 04:54:13;;;;;;;5.83;2.93;;;;;;;7.92;100.00;99459.19;4941873;28;20051;-79
2023/03/31 04:56:39;;;;;;;5.83;2.30;;;;;;;7.89;100.00;99459.25;4920099;29;20137;-79
2023/03/31 04:59:07;;;;;;;4.33;2.77;;;;;;;7.85;100.00;99461.13;4925509;29;20051;-79
2023/03/31 05:01:34;;;;;;;7.60;3.20;;;;;;;7.81;100.00;99450.72;4952348;28;20105;-79
2023/03/31 05:04:05;;;;;;;7.50;4.40;;;;;;;7.78;100.00;99454.31;4944675;28;20042;-77
2023/03/31 05:06:32;;;;;;;6.73;3.30;;;;;;;7.78;100.00;99442.94;4962041;28;20090;-77
2023/03/31 05:08:59;;;;;;;5.63;3.10;;;;;;;7.78;100.00;99435.91;4963610;28;20710;-78
2023/03/31 05:11:27;;;;;;;3.37;2.60;;;;;;;7.82;100.00;99441.94;4931549;28;20035;-78
2023/03/31 05:13:55;;;;;;;5.20;3.23;;;;;;;7.86;100.00;99439.16;4944178;28;20034;-78
2023/03/31 05:16:24;;;;;;;7.00;3.37;;;;;;;7.88;100.00;99428.59;4935655;28;20050;-78
2023/03/31 05:18:53;;;;;;;6.90;2.60;;;;;;;7.93;100.00;99428.47;4946146;28;20093;-78
2023/03/31 05:21:20;;;;;;;7.03;3.20;;;;;;;8.07;100.00;99423.66;4944718;28;20515;-78
2023/03/31 05:23:47;;;;;;;6.77;3.00;;;;;;;8.07;100.00;99428.91;4929892;28;20038;-78
2023/03/31 05:26:14;;;;;;;6.60;2.77;;;;;;;8.16;100.00;99426.91;4958879;28;20047;-79
2023/03/31 05:28:41;;;;;;;7.27;3.00;;;;;;;8.14;100.00;99419.94;4945909;28;20031;-79
2023/03/31 05:31:10;;;;;;;4.23;2.70;;;;;;;8.22;100.00;99415.31;4939717;28;20050;-78
2023/03/31 05:33:40;;;;;;;7.00;3.33;;;;;;;8.30;100.00;99418.56;4939915;28;20071;-79
2023/03/31 05:36:12;;;;;;;5.03;2.43;;;;;;;8.34;100.00;99407.06;4940155;28;20046;-79
2023/03/31 05:38:39;;;;;;;6.27;2.73;;;;;;;8.40;100.00;99406.00;4940057;28;20050;-79
2023/03/31 05:41:08;;;;;;;6.87;3.33;;;;;;;8.41;100.00;99411.25;4936408;28;20047;-78
2023/03/31 05:43:35;;;;;;;4.80;2.23;;;;;;;8.40;100.00;99406.88;4920561;29;20043;-78
2023/03/31 05:46:02;;;;;;;7.53;2.77;;;;;;;8.46;100.00;99411.09;4938949;28;20050;-79
2023/03/31 05:48:30;;;;;;;5.13;2.33;;;;;;;8.50;100.00;99407.47;4957622;28;20064;-79
2023/03/31 05:50:57;;;;;;;4.80;2.20;;;;;;;8.50;100.00;99396.94;4969652;28;20473;-78
2023/03/31 05:53:25;;;;;;;6.87;2.40;;;;;;;8.52;100.00;99402.13;4965333;28;20066;-78
2023/03/31 05:56:00;;;;;;;4.40;2.80;;;;;;;8.57;100.00;99393.16;4963941;28;20046;-79
2023/03/31 05:58:28;;;;;;;4.73;3.10;;;;;;;8.62;100.00;99393.03;4957696;28;20051;-78
2023/03/31 06:01:06;;;;;;;5.80;2.40;;;;;;;8.65;100.00;99391.13;4941148;28;20039;-79
2023/03/31 06:03:35;;;;;;;6.27;3.17;;;;;;;8.63;100.00;99379.81;4973612;28;20031;-79
2023/03/31 06:06:04;;;;;;;6.47;2.13;;;;;;;8.69;100.00;99384.03;4925913;28;20097;-79
2023/03/31 06:08:31;;;;;;;3.05;2.10;;;;;;;8.67;100.00;99385.84;4941752;28;20053;-79
2023/03/31 06:10:58;;;;;;;6.73;2.13;;;;;;;8.69;100.00;99378.75;4957123;28;20388;-79
2023/03/31 06:13:24;;;;;;;5.30;2.60;;;;;;;8.75;100.00;99370.66;4924137;28;20043;-79
2023/03/31 06:15:56;;;;;;;4.22;2.38;;;;;;;8.84;100.00;99369.50;4941126;28;20042;-78
2023/03/31 06:18:23;;;;;;;5.68;2.10;;;;;;;8.99;100.00;99380.34;4941355;28;20054;-78
2023/03/31 06:20:50;;;;;;;5.30;2.85;;;;;;;9.19;100.00;99370.91;4927717;28;20069;-80
2023/03/31 06:23:18;;;;;;;3.83;2.10;;;;;;;9.42;100.00;99375.34;4938470;29;20047;-80
2023/03/31 06:25:45;;;;;;;7.13;2.30;;;;;;;9.61;100.00;99380.81;4954329;28;20066;-78
2023/03/31 06:28:18;;;;;;;5.70;2.38;;;;;;;9.75;100.00;99378.50;4964293;28;20046;-79
2023/03/31 06:30:45;;;;;;;4.15;2.15;;;;;;;9.78;100.00;99381.88;4923300;28;20496;-78
2023/03/31 06:33:12;;;;;;;2.65;1.77;;;;;;;9.95;100.00;99370.69;4932731;28;20493;-78
2023/03/31 06:35:40;;;;;;;5.45;2.10;;;;;;;10.06;100.00;99365.84;4940472;28;20053;-79
2023/03/31 06:38:07;;;;;;;2.83;2.00;;;;;;;10.09;100.00;99363.13;4953988;28;20047;-78
2023/03/31 06:40:34;;;;;;;3.95;1.90;;;;;;;10.25;100.00;99359.88;4950603;28;20070;-79
2023/03/31 06:43:00;;;;;;;4.28;2.10;;;;;;;10.27;100.00;99358.06;4985297;28;20102;-78
2023/03/31 06:45:27;;;;;;;4.22;1.98;;;;;;;10.26;100.00;99353.72;4961302;28;20038;-78
2023/03/31 06:47:54;;;;;;;7.30;1.90;;;;;;;10.15;100.00;99354.06;4978525;28;20043;-78
2023/03/31 06:50:21;;;;;;;3.08;2.00;;;;;;;10.22;100.00;99352.94;4963655;28;20042;-78
2023/03/31 06:52:51;;;;;;;4.63;2.13;;;;;;;10.16;100.00;99343.47;4927829;29;20465;-78
2023/03/31 06:55:18;;;;;;;5.22;2.35;;;;;;;10.20;100.00;99348.63;4947770;28;20567;-78
2023/03/31 06:57:45;;;;;;;4.07;2.00;;;;;;;10.27;100.00;99350.16;4948230;28;20066;-78
2023/03/31 07:00:12;;;;;;;2.78;1.80;;;;;;;10.26;100.00;99345.78;4966132;28;20040;-78
2023/03/31 07:02:39;;;;;;;3.70;1.65;;;;;;;10.37;100.00;99354.13;4945106;28;20097;-78
2023/03/31 07:05:06;;;;;;;4.18;1.83;;;;;;;10.47;100.00;99347.53;4961889;28;20035;-78
2023/03/31 07:07:33;;;;;;;3.75;1.73;;;;;;;10.50;100.00;99351.81;4948331;28;20047;-78
2023/03/31 07:10:00;;;;;;;4.15;1.70;;;;;;;10.65;100.00;99352.06;4957669;28;20098;-78
2023/03/31 07:12:27;;;;;;;4.22;1.85;;;;;;;10.65;100.00;99344.13;4947487;28;20145;-78
2023/03/31 07:14:54;;;;;;;5.07;2.13;;;;;;;10.81;100.00;99343.50;4964794;28;20500;-78
2023/03/31 07:17:24;;;;;;;5.25;1.70;;;;;;;10.84;100.00;99344.22;4968546;28;20043;-77
2023/03/31 07:19:51;;;;;;;3.85;1.80;;;;;;;10.98;100.00;99343.63;4958049;28;20134;-78
2023/03/31 07:22:17;;;;;;;2.75;2.08;;;;;;;10.99;100.00;99346.19;4947130;28;20231;-79
2023/03/31 07:24:44;;;;;;;3.50;1.50;;;;;;;11.01;100.00;99340.84;4930419;28;20051;-78
2023/03/31 07:27:11;;;;;;;3.05;1.90;;;;;;;11.20;100.00;99340.94;4992360;28;20485;-78
2023/03/31 07:29:37;;;;;;;3.72;1.80;;;;;;;11.52;100.00;99336.84;4945312;28;20137;-78
2023/03/31 07:32:04;;;;;;;4.68;1.83;;;;;;;11.81;100.00;99336.38;4978431;28;20051;-78
2023/03/31 07:34:31;;;;;;;3.05;1.63;;;;;;;12.09;100.00;99332.44;4978030;28;20496;-78
2023/03/31 07:37:00;;;;;;;4.13;2.40;;;;;;;12.23;100.00;99321.19;4970991;28;20043;-79
2023/03/31 07:39:27;;;;;;;4.03;1.83;;;;;;;12.52;100.00;99319.75;4943898;29;20064;-78
2023/03/31 07:41:54;;;;;;;4.43;1.50;;;;;;;12.64;100.00;99317.34;4931314;28;20055;-78
2023/03/31 07:44:22;;;;;;;3.67;1.75;;;;;;;12.76;100.00;99315.88;4948733;28;20039;-78
2023/03/31 07:46:49;;;;;;;5.07;1.65;;;;;;;12.98;100.00;99298.88;4942640;28;20051;-78
2023/03/31 07:49:15;;;;;;;7.25;2.50;;;;;;;13.08;100.00;99294.78;4969507;28;20196;-78
2023/03/31 07:51:42;;;;;;;5.40;2.58;;;;;;;13.19;100.00;99297.72;4959865;28;20042;-79
2023/03/31 07:54:09;;;;;;;3.72;1.80;;;;;;;13.20;100.00;99294.16;4935078;28;20039;-80
2023/03/31 07:56:36;;;;;;;4.38;2.35;;;;;;;13.18;100.00;99294.22;4959076;28;20030;-78
2023/03/31 07:59:03;;;;;;;5.65;2.13;;;;;;;13.23;100.00;99288.72;4974910;28;20038;-78
2023/03/31 08:01:30;;;;;;;4.60;1.90;;;;;;;13.28;100.00;99286.66;4948309;28;20043;-78
2023/03/31 08:03:57;;;;;;;8.82;2.80;;;;;;;13.31;98.92;99288.31;4982304;28;20054;-78
2023/03/31 08:06:25;;;;;;;4.88;2.47;;;;;;;13.29;98.81;99279.59;4948535;28;20539;-78
2023/03/31 08:08:52;;;;;;;3.58;1.90;;;;;;;13.31;100.00;99281.22;4947477;28;20607;-77
2023/03/31 08:11:20;;;;;;;4.07;2.50;;;;;;;13.44;97.79;99286.69;4929683;29;20103;-78
2023/03/31 08:13:47;;;;;;;5.30;2.17;;;;;;;13.42;96.61;99280.63;4961405;28;20408;-78
2023/03/31 08:16:13;;;;;;;5.28;2.20;;;;;;;13.52;97.97;99281.84;4943687;28;20043;-78
2023/03/31 08:18:40;;;;;;;6.68;2.20;;;;;;;13.52;95.96;99281.84;4961969;28;20045;-79
2023/03/31 08:21:08;;;;;;;3.90;2.00;;;;;;;13.64;98.06;99267.91;4982229;28;20045;-79
2023/03/31 08:23:35;;;;;;;7.00;3.05;;;;;;;13.75;95.83;99269.97;4975953;28;20073;-78
2023/03/31 08:26:09;;;;;;;4.57;2.50;;;;;;;13.89;95.47;99258.59;4942457;28;20052;-78
2023/03/31 08:28:36;;;;;;;5.30;2.03;;;;;;;13.96;93.41;99258.16;4922746;28;20058;-79
2023/03/31 08:31:04;;;;;;;6.65;2.10;;;;;;;14.05;91.24;99262.09;4963751;28;20048;-78
2023/03/31 08:33:31;;;;;;;4.97;1.75;;;;;;;14.17;92.57;99255.22;4935514;28;20074;-78
2023/03/31 08:36:07;;;;;;;5.22;2.65;;;;;;;14.21;90.56;99259.38;4939627;28;20050;-78
2023/03/31 08:38:41;;;;;;;7.38;1.67;;;;;;;14.18;91.02;99251.59;4932909;28;20041;-78
2023/03/31 08:41:33;;;;;;;4.97;2.15;;;;;;;14.17;91.26;99252.56;4975675;28;20476;-79
2023/03/31 08:44:04;;;;;;;4.60;2.28;;;;;;;14.06;88.29;99255.84;4935455;29;20432;-78
2023/03/31 08:46:32;;;;;;;8.55;2.90;;;;;;;13.94;87.83;99252.06;4941092;28;20046;-78
2023/03/31 08:49:00;;;;;;;5.95;2.00;;;;;;;13.80;92.41;99249.34;4973692;28;20047;-78
2023/03/31 08:51:29;;;;;;;6.22;2.08;;;;;;;13.69;91.14;99249.91;4956907;28;20066;-78
2023/03/31 08:54:18;;;;;;;5.65;2.13;;;;;;;13.50;90.05;99251.88;4958077;28;20523;-79
2023/03/31 08:56:47;;;;;;;5.20;2.15;;;;;;;13.47;93.27;99255.56;4955849;28;20038;-79
2023/03/31 08:59:27;;;;;;;3.45;1.88;;;;;;;13.42;96.96;99249.66;4934033;28;20047;-79
2023/03/31 09:02:19;;;;;;;3.33;2.05;;;;;;;13.41;97.71;99242.63;4973145;28;20050;-78
2023/03/31 09:04:55;;;;;;;4.57;2.20;;;;;;;13.50;97.95;99234.16;4965993;28;20043;-79
2023/03/31 09:07:25;;;;;;;3.92;1.92;;;;;;;13.47;97.85;99233.50;4957254;28;20078;-78
2023/03/31 09:10:11;;;;;;;5.25;1.85;;;;;;;13.49;96.59;99226.31;4941043;28;20074;-78
2023/03/31 09:13:01;;;;;;;4.28;1.70;;;;;;;13.47;96.94;99223.75;4941286;28;20035;-78
2023/03/31 09:15:33;;;;;;;5.28;2.03;;;;;;;13.42;97.72;99220.47;4924622;28;20485;-78
2023/03/31 09:18:08;;;;;;;5.65;2.55;;;;;;;13.51;93.59;99221.75;4954282;28;20097;-78
2023/03/31 09:20:37;;;;;;;3.75;1.85;;;;;;;13.66;94.38;99226.22;4940582;28;20129;-78
2023/03/31 09:23:15;;;;;;;4.82;2.15;;;;;;;13.64;94.77;99221.94;4940164;28;20043;-78
2023/03/31 09:25:43;;;;;;;3.17;2.05;;;;;;;13.67;93.82;99213.81;4940646;29;20039;-78
2023/03/31 09:28:19;;;;;;;4.03;1.95;;;;;;;13.82;93.09;99204.97;4951984;28;20105;-78
2023/03/31 09:30:50;;;;;;;6.78;2.30;;;;;;;13.78;94.18;99200.78;4940414;28;20038;-79
2023/03/31 09:33:27;;;;;;;6.55;1.80;;;;;;;13.87;90.03;99202.91;4972566;28;20046;-78
2023/03/31 09:35:53;;;;;;;4.05;1.83;;;;;;;13.84;90.48;99194.25;4949457;28;20523;-79
2023/03/31 09:38:20;;;;;;;7.13;2.17;;;;;;;13.77;91.80;99197.25;4945826;28;20043;-78
2023/03/31 09:40:47;;;;;;;6.72;1.83;;;;;;;13.87;92.84;99194.09;4926180;28;20046;-78
2023/03/31 09:43:25;;;;;;;4.40;2.13;;;;;;;14.12;95.72;99193.53;4963907;28;20464;-78
2023/03/31 09:45:52;;;;;;;7.13;2.00;;;;;;;14.45;94.71;99182.72;4938321;29;20050;-77
2023/03/31 09:48:36;;;;;;;6.45;1.92;;;;;;;14.86;90.84;99178.44;4925272;29;20055;-78
2023/03/31 09:51:06;;;;;;;5.05;2.00;;;;;;;15.04;82.23;99170.25;4906003;29;20043;-78
2023/03/31 09:53:52;;;;;;;4.53;2.20;;;;;;;15.20;84.80;99163.88;4936955;28;20043;-78
2023/03/31 09:56:52;;;;;;;5.93;2.10;;;;;;;15.50;81.07;99162.88;4962176;28;20145;-79
2023/03/31 09:59:22;;;;;;;4.57;2.03;;;;;;;15.56;79.13;99151.00;4949166;28;20050;-79
2023/03/31 10:01:51;;;;;;;8.10;2.58;;;;;;;15.41;79.63;99150.16;5036388;23;20061;-81
2023/03/31 10:04:22;;;;;;;5.38;2.00;;;;;;;15.28;77.91;99142.09;4952374;28;20062;-80
2023/03/31 10:06:51;;;;;;;5.38;1.80;;;;;;;15.19;79.16;99148.88;4983176;28;20046;-79
2023/03/31 10:09:22;;;;;;;4.97;2.42;;;;;;;15.16;77.31;99149.06;4934310;28;20050;-80
2023/03/31 10:12:02;;;;;;;5.55;2.13;;;;;;;15.17;77.93;99140.13;4952476;28;20049;-81
2023/03/31 10:14:48;;;;;;;7.28;2.33;;;;;;;15.15;78.26;99136.72;4964437;28;20454;-81
2023/03/31 10:17:17;;;;;;;6.60;2.00;;;;;;;15.06;79.51;99128.47;4975929;28;20054;-81
2023/03/31 10:19:56;;;;;;;5.63;2.20;;;;;;;15.14;80.06;99129.69;4965738;28;20046;-80
2023/03/31 10:22:34;;;;;;;7.22;2.08;;;;;;;15.16;81.39;99125.13;4962580;28;20424;-81
2023/03/31 10:25:27;;;;;;;6.93;2.20;;;;;;;15.31;79.36;99111.81;4957623;28;20042;-81
2023/03/31 10:27:55;;;;;;;4.68;2.00;;;;;;;15.35;77.55;99115.97;4952591;28;20113;-78
2023/03/31 10:30:25;;;;;;;4.45;1.60;;;;;;;14.96;81.39;99114.88;4966720;28;20046;-79
2023/03/31 10:32:52;;;;;;;5.03;1.58;;;;;;;15.05;79.50;99121.44;4982075;28;20038;-79
2023/03/31 10:35:32;;;;;;;4.45;2.33;;;;;;;15.11;78.68;99116.56;4991808;28;20052;-79
2023/03/31 10:38:05;;;;;;;5.53;2.05;;;;;;;15.17;77.49;99118.00;4998374;28;20049;-80
2023/03/31 10:40:32;;;;;;;8.20;2.60;;;;;;;15.02;77.16;99111.84;4970209;28;20055;-79
2023/03/31 10:43:09;;;;;;;4.28;1.88;;;;;;;15.04;78.37;99101.09;4961670;28;20057;-80
2023/03/31 10:45:40;;;;;;;5.28;1.98;;;;;;;15.07;80.06;99103.59;4999193;28;20073;-79
2023/03/31 10:48:25;;;;;;;4.00;1.63;;;;;;;15.10;77.43;99101.56;4963590;28;20053;-80
2023/03/31 10:50:52;;;;;;;5.32;1.83;;;;;;;15.21;77.95;99090.22;4971086;28;20046;-79
2023/03/31 10:53:19;;;;;;;7.50;2.00;;;;;;;15.24;75.36;99084.75;4961750;28;20067;-79
2023/03/31 10:56:14;;;;;;;3.83;1.88;;;;;;;15.23;76.75;99082.19;4943717;28;20042;-81
2023/03/31 10:59:05;;;;;;;4.97;1.83;;;;;;;15.27;78.94;99073.03;4943576;28;20047;-79
2023/03/31 11:01:41;;;;;;;4.20;1.88;;;;;;;15.26;77.85;99071.34;4942257;28;20042;-80
2023/03/31 11:04:38;;;;;;;3.67;2.22;;;;;;;15.30;78.12;99071.03;4961087;28;20043;-80
2023/03/31 11:07:12;;;;;;;3.78;1.70;;;;;;;15.54;77.63;99062.38;4976445;28;20514;-80
2023/03/31 11:09:59;;;;;;;4.25;2.03;;;;;;;15.69;77.56;99059.59;4965439;28;20109;-79
2023/03/31 11:12:51;;;;;;;3.17;1.92;;;;;;;15.71;75.06;99055.00;4969940;28;20039;-79
2023/03/31 11:15:59;;;;;;;7.45;2.20;;;;;;;15.78;73.97;99047.47;4957823;28;20059;-78
2023/03/31 11:18:35;;;;;;;4.68;1.83;;;;;;;15.51;75.03;99047.47;4913060;29;20048;-80
2023/03/31 11:21:11;;;;;;;5.32;2.25;;;;;;;15.48;76.87;99045.88;4950188;28;20062;-79
2023/03/31 11:24:15;;;;;;;5.30;2.65;;;;;;;15.35;79.38;99044.97;4978269;28;20042;-78
2023/03/31 11:26:53;;;;;;;8.07;2.25;;;;;;;15.22;78.47;99036.09;4979132;28;20038;-80
2023/03/31 11:29:25;;;;;;;5.90;2.60;;;;;;;15.14;79.85;99033.94;4957287;28;20133;-78
2023/03/31 11:32:25;;;;;;;3.67;2.20;;;;;;;14.99;80.62;99036.72;4981734;28;20117;-79
2023/03/31 11:35:34;;;;;;;4.20;2.00;;;;;;;14.85;88.18;99021.66;4947249;28;20051;-79
2023/03/31 11:38:23;;;;;;;5.18;2.20;;;;;;;14.67;91.59;99025.50;4942901;28;20109;-79
2023/03/31 11:41:03;;;;;;;3.08;2.15;;;;;;;14.56;98.47;99026.19;4976255;28;20066;-80
2023/03/31 11:43:43;;;;;;;5.05;2.42;;;;;;;14.46;100.00;99022.34;4959359;28;20047;-79
2023/03/31 11:46:29;;;;;;;3.35;1.83;;;;;;;14.28;100.00;99006.59;4976396;28;20069;-81
2023/03/31 11:49:02;;;;;;;5.28;2.72;;;;;;;14.17;100.00;99006.41;4974684;28;20046;-80
2023/03/31 11:52:05;;;;;;;9.38;2.63;;;;;;;13.98;100.00;99000.50;4941713;28;20259;-78
2023/03/31 11:54:36;;;;;;;4.95;2.63;;;;;;;13.87;100.00;99002.94;4953082;28;20039;-81
2023/03/31 11:57:16;;;;;;;6.82;3.10;;;;;;;13.84;100.00;98998.69;4952774;28;20427;-78